sensor_id;sensor_type;location;lat;lon;timestamp;temperature;humidity
15713;DHT22;7957;51.608;6.916;2023-02-01T00:02:12;4.20;99.90
15713;DHT22;7957;51.608;6.916;2023-02-01T00:04:39;4.20;99.90
15713;DHT22;7957;51.608;6.916;2023-02-01T00:07:06;4.20;99.90
15713;DHT22;7957;51.608;6.916;2023-02-01T00:09:33;4.20;99.90
15713;DHT22;7957;51.608;6.916;2023-02-01T00:11:59;4.30;99.90
15713;DHT22;7957;51.608;6.916;2023-02-01T00:14:28;4.30;99.90
15713;DHT22;7957;51.608;6.916;2023-02-01T00:16:57;4.30;99.90
15713;DHT22;7957;51.608;6.916;2023-02-01T00:19:24;4.30;99.90
15713;DHT22;7957;51.608;6.916;2023-02-01T00:21:50;4.30;99.90
15713;DHT22;7957;51.608;6.916;2023-02-01T00:24:17;4.30;99.90
15713;DHT22;7957;51.608;6.916;2023-02-01T00:26:45;4.30;99.90
15713;DHT22;7957;51.608;6.916;2023-02-01T00:29:14;4.30;99.90
15713;DHT22;7957;51.608;6.916;2023-02-01T00:31:41;4.30;99.90
15713;DHT22;7957;51.608;6.916;2023-02-01T00:34:12;4.30;99.90
15713;DHT22;7957;51.608;6.916;2023-02-01T00:36:39;4.30;99.90
15713;DHT22;7957;51.608;6.916;2023-02-01T00:39:06;4.30;99.90
15713;DHT22;7957;51.608;6.916;2023-02-01T00:41:33;4.30;99.90
15713;DHT22;7957;51.608;6.916;2023-02-01T00:44:00;4.30;99.90
15713;DHT22;7957;51.608;6.916;2023-02-01T00:46:27;4.30;99.90
15713;DHT22;7957;51.608;6.916;2023-02-01T00:48:55;4.30;99.90
15713;DHT22;7957;51.608;6.916;2023-02-01T00:51:25;4.30;99.90
15713;DHT22;7957;51.608;6.916;2023-02-01T00:53:52;4.30;99.90
15713;DHT22;7957;51.608;6.916;2023-02-01T00:56:19;4.30;99.90
15713;DHT22;7957;51.608;6.916;2023-02-01T00:58:46;4.30;99.90
15713;DHT22;7957;51.608;6.916;2023-02-01T01:01:15;4.30;99.90
15713;DHT22;7957;51.608;6.916;2023-02-01T01:03:44;4.30;99.90
15713;DHT22;7957;51.608;6.916;2023-02-01T01:06:13;4.30;99.90
15713;DHT22;7957;51.608;6.916;2023-02-01T01:08:43;4.30;99.90
15713;DHT22;7957;51.608;6.916;2023-02-01T01:11:12;4.30;99.90
15713;DHT22;7957;51.608;6.916;2023-02-01T01:13:40;4.30;99.90
15713;DHT22;7957;51.608;6.916;2023-02-01T01:16:08;4.30;99.90
15713;DHT22;7957;51.608;6.916;2023-02-01T01:18:36;4.30;99.90
15713;DHT22;7957;51.608;6.916;2023-02-01T01:21:04;4.30;99.90
15713;DHT22;7957;51.608;6.916;2023-02-01T01:23:32;4.30;99.90
15713;DHT22;7957;51.608;6.916;2023-02-01T01:26:00;4.30;99.90
15713;DHT22;7957;51.608;6.916;2023-02-01T01:28:27;4.30;99.90
15713;DHT22;7957;51.608;6.916;2023-02-01T01:30:54;4.30;99.90
15713;DHT22;7957;51.608;6.916;2023-02-01T01:33:21;4.30;99.90
15713;DHT22;7957;51.608;6.916;2023-02-01T01:35:48;4.30;99.90
15713;DHT22;7957;51.608;6.916;2023-02-01T01:38:15;4.30;99.90
15713;DHT22;7957;51.608;6.916;2023-02-01T01:40:44;4.30;99.90
15713;DHT22;7957;51.608;6.916;2023-02-01T01:43:15;4.30;99.90
15713;DHT22;7957;51.608;6.916;2023-02-01T01:45:42;4.30;99.90
15713;DHT22;7957;51.608;6.916;2023-02-01T01:48:12;4.30;99.90
15713;DHT22;7957;51.608;6.916;2023-02-01T01:50:44;4.30;99.90
15713;DHT22;7957;51.608;6.916;2023-02-01T01:53:17;4.30;99.90
15713;DHT22;7957;51.608;6.916;2023-02-01T01:55:47;4.30;99.90
15713;DHT22;7957;51.608;6.916;2023-02-01T01:58:18;4.30;99.90
15713;DHT22;7957;51.608;6.916;2023-02-01T02:00:47;4.30;99.90
15713;DHT22;7957;51.608;6.916;2023-02-01T02:03:17;4.30;99.90
15713;DHT22;7957;51.608;6.916;2023-02-01T02:05:46;4.30;99.90
15713;DHT22;7957;51.608;6.916;2023-02-01T02:08:14;4.30;99.90
15713;DHT22;7957;51.608;6.916;2023-02-01T02:10:41;4.30;99.90
15713;DHT22;7957;51.608;6.916;2023-02-01T02:13:31;4.30;99.90
15713;DHT22;7957;51.608;6.916;2023-02-01T02:16:06;4.30;99.90
15713;DHT22;7957;51.608;6.916;2023-02-01T02:18:41;4.30;99.90
15713;DHT22;7957;51.608;6.916;2023-02-01T02:21:15;4.30;99.90
15713;DHT22;7957;51.608;6.916;2023-02-01T02:27:22;4.30;99.90
15713;DHT22;7957;51.608;6.916;2023-02-01T02:30:24;4.30;99.90
15713;DHT22;7957;51.608;6.916;2023-02-01T02:33:28;4.30;99.90
15713;DHT22;7957;51.608;6.916;2023-02-01T02:36:08;4.20;99.90
15713;DHT22;7957;51.608;6.916;2023-02-01T02:38:40;4.30;99.90
15713;DHT22;7957;51.608;6.916;2023-02-01T02:41:13;4.20;99.90
15713;DHT22;7957;51.608;6.916;2023-02-01T02:44:09;4.20;99.90
15713;DHT22;7957;51.608;6.916;2023-02-01T02:46:59;4.20;99.90
15713;DHT22;7957;51.608;6.916;2023-02-01T02:49:51;4.20;99.90
15713;DHT22;7957;51.608;6.916;2023-02-01T02:52:44;4.30;99.90
15713;DHT22;7957;51.608;6.916;2023-02-01T02:55:31;4.20;99.90
15713;DHT22;7957;51.608;6.916;2023-02-01T02:58:02;4.20;99.90
15713;DHT22;7957;51.608;6.916;2023-02-01T03:00:48;4.20;99.90
15713;DHT22;7957;51.608;6.916;2023-02-01T03:03:36;4.20;99.90
15713;DHT22;7957;51.608;6.916;2023-02-01T03:06:24;4.20;99.90
15713;DHT22;7957;51.608;6.916;2023-02-01T03:08:51;4.20;99.90
15713;DHT22;7957;51.608;6.916;2023-02-01T03:11:20;4.20;99.90
15713;DHT22;7957;51.608;6.916;2023-02-01T03:13:51;4.30;99.90
15713;DHT22;7957;51.608;6.916;2023-02-01T03:16:20;4.30;99.90
15713;DHT22;7957;51.608;6.916;2023-02-01T03:18:55;4.20;99.90
15713;DHT22;7957;51.608;6.916;2023-02-01T03:21:27;4.30;99.90
15713;DHT22;7957;51.608;6.916;2023-02-01T03:23:59;4.30;99.90
15713;DHT22;7957;51.608;6.916;2023-02-01T03:26:30;4.30;99.90
15713;DHT22;7957;51.608;6.916;2023-02-01T03:29:02;4.20;99.90
15713;DHT22;7957;51.608;6.916;2023-02-01T03:31:32;4.20;99.90
15713;DHT22;7957;51.608;6.916;2023-02-01T03:33:59;4.20;99.90
15713;DHT22;7957;51.608;6.916;2023-02-01T03:36:31;4.20;99.90
15713;DHT22;7957;51.608;6.916;2023-02-01T03:39:04;4.20;99.90
15713;DHT22;7957;51.608;6.916;2023-02-01T03:41:37;4.20;99.90
15713;DHT22;7957;51.608;6.916;2023-02-01T03:44:12;4.20;99.90
15713;DHT22;7957;51.608;6.916;2023-02-01T03:46:42;4.20;99.90
15713;DHT22;7957;51.608;6.916;2023-02-01T03:49:16;4.20;99.90
15713;DHT22;7957;51.608;6.916;2023-02-01T03:51:47;4.20;99.90
15713;DHT22;7957;51.608;6.916;2023-02-01T03:54:16;4.20;99.90
15713;DHT22;7957;51.608;6.916;2023-02-01T03:56:46;4.20;99.90
15713;DHT22;7957;51.608;6.916;2023-02-01T03:59:14;4.20;99.90
15713;DHT22;7957;51.608;6.916;2023-02-01T04:01:41;4.20;99.90
15713;DHT22;7957;51.608;6.916;2023-02-01T04:04:10;4.20;99.90
15713;DHT22;7957;51.608;6.916;2023-02-01T04:06:46;4.20;99.90
15713;DHT22;7957;51.608;6.916;2023-02-01T04:09:13;4.20;99.90
15713;DHT22;7957;51.608;6.916;2023-02-01T04:11:40;4.20;99.90
15713;DHT22;7957;51.608;6.916;2023-02-01T04:14:07;4.20;99.90
15713;DHT22;7957;51.608;6.916;2023-02-01T04:16:34;4.20;99.90
15713;DHT22;7957;51.608;6.916;2023-02-01T04:19:01;4.20;99.90
15713;DHT22;7957;51.608;6.916;2023-02-01T04:21:29;4.20;99.90
15713;DHT22;7957;51.608;6.916;2023-02-01T04:23:57;4.20;99.90
15713;DHT22;7957;51.608;6.916;2023-02-01T04:26:24;4.20;99.90
15713;DHT22;7957;51.608;6.916;2023-02-01T04:28:51;4.20;99.90
15713;DHT22;7957;51.608;6.916;2023-02-01T04:31:19;4.20;99.90
15713;DHT22;7957;51.608;6.916;2023-02-01T04:33:51;4.20;99.90
15713;DHT22;7957;51.608;6.916;2023-02-01T04:36:18;4.20;99.90
15713;DHT22;7957;51.608;6.916;2023-02-01T04:38:47;4.20;99.90
15713;DHT22;7957;51.608;6.916;2023-02-01T04:41:15;4.20;99.90
15713;DHT22;7957;51.608;6.916;2023-02-01T04:43:44;4.20;99.90
15713;DHT22;7957;51.608;6.916;2023-02-01T04:46:11;4.20;99.90
15713;DHT22;7957;51.608;6.916;2023-02-01T04:48:38;4.20;99.90
15713;DHT22;7957;51.608;6.916;2023-02-01T04:51:05;4.20;99.90
15713;DHT22;7957;51.608;6.916;2023-02-01T04:53:33;4.30;99.90
15713;DHT22;7957;51.608;6.916;2023-02-01T04:56:00;4.30;99.90
15713;DHT22;7957;51.608;6.916;2023-02-01T04:58:28;4.30;99.90
15713;DHT22;7957;51.608;6.916;2023-02-01T05:00:55;4.30;99.90
15713;DHT22;7957;51.608;6.916;2023-02-01T05:03:22;4.30;99.90
15713;DHT22;7957;51.608;6.916;2023-02-01T05:05:49;4.30;99.90
15713;DHT22;7957;51.608;6.916;2023-02-01T05:08:18;4.30;99.90
15713;DHT22;7957;51.608;6.916;2023-02-01T05:10:48;4.30;99.90
15713;DHT22;7957;51.608;6.916;2023-02-01T05:13:14;4.30;99.90
15713;DHT22;7957;51.608;6.916;2023-02-01T05:16:00;4.30;99.90
15713;DHT22;7957;51.608;6.916;2023-02-01T05:18:27;4.30;99.90
15713;DHT22;7957;51.608;6.916;2023-02-01T05:20:54;4.30;99.90
15713;DHT22;7957;51.608;6.916;2023-02-01T05:23:21;4.30;99.90
15713;DHT22;7957;51.608;6.916;2023-02-01T05:25:48;4.30;99.90
15713;DHT22;7957;51.608;6.916;2023-02-01T05:28:14;4.30;99.90
15713;DHT22;7957;51.608;6.916;2023-02-01T05:30:41;4.30;99.90
15713;DHT22;7957;51.608;6.916;2023-02-01T05:33:10;4.20;99.90
15713;DHT22;7957;51.608;6.916;2023-02-01T05:35:37;4.20;99.90
15713;DHT22;7957;51.608;6.916;2023-02-01T05:38:03;4.20;99.90
15713;DHT22;7957;51.608;6.916;2023-02-01T05:40:30;4.30;99.90
15713;DHT22;7957;51.608;6.916;2023-02-01T05:42:57;4.30;99.90
15713;DHT22;7957;51.608;6.916;2023-02-01T05:45:24;4.20;99.90
15713;DHT22;7957;51.608;6.916;2023-02-01T05:47:51;4.20;99.90
15713;DHT22;7957;51.608;6.916;2023-02-01T05:50:20;4.20;99.90
15713;DHT22;7957;51.608;6.916;2023-02-01T05:52:47;4.20;99.90
15713;DHT22;7957;51.608;6.916;2023-02-01T05:55:14;4.20;99.90
15713;DHT22;7957;51.608;6.916;2023-02-01T05:57:47;4.20;99.90
15713;DHT22;7957;51.608;6.916;2023-02-01T06:00:14;4.20;99.90
15713;DHT22;7957;51.608;6.916;2023-02-01T06:02:41;4.20;99.90
15713;DHT22;7957;51.608;6.916;2023-02-01T06:05:09;4.20;99.90
15713;DHT22;7957;51.608;6.916;2023-02-01T06:07:37;4.20;99.90
15713;DHT22;7957;51.608;6.916;2023-02-01T06:10:05;4.20;99.90
15713;DHT22;7957;51.608;6.916;2023-02-01T06:12:32;4.20;99.90
15713;DHT22;7957;51.608;6.916;2023-02-01T06:14:59;4.30;99.90
15713;DHT22;7957;51.608;6.916;2023-02-01T06:17:25;4.30;99.90
15713;DHT22;7957;51.608;6.916;2023-02-01T06:19:52;4.20;99.90
15713;DHT22;7957;51.608;6.916;2023-02-01T06:22:19;4.30;99.90
15713;DHT22;7957;51.608;6.916;2023-02-01T06:24:49;4.30;99.90
15713;DHT22;7957;51.608;6.916;2023-02-01T06:27:16;4.30;99.90
15713;DHT22;7957;51.608;6.916;2023-02-01T06:29:43;4.30;99.90
15713;DHT22;7957;51.608;6.916;2023-02-01T06:32:10;4.30;99.90
15713;DHT22;7957;51.608;6.916;2023-02-01T06:34:37;4.30;99.90
15713;DHT22;7957;51.608;6.916;2023-02-01T06:37:05;4.30;99.90
15713;DHT22;7957;51.608;6.916;2023-02-01T06:39:31;4.30;99.90
15713;DHT22;7957;51.608;6.916;2023-02-01T06:42:00;4.30;99.90
15713;DHT22;7957;51.608;6.916;2023-02-01T06:44:27;4.30;99.90
15713;DHT22;7957;51.608;6.916;2023-02-01T06:46:53;4.40;99.90
15713;DHT22;7957;51.608;6.916;2023-02-01T06:49:21;4.40;99.90
15713;DHT22;7957;51.608;6.916;2023-02-01T06:51:48;4.30;99.90
15713;DHT22;7957;51.608;6.916;2023-02-01T06:54:15;4.40;99.90
15713;DHT22;7957;51.608;6.916;2023-02-01T06:56:41;4.40;99.90
15713;DHT22;7957;51.608;6.916;2023-02-01T06:59:10;4.40;99.90
15713;DHT22;7957;51.608;6.916;2023-02-01T07:01:38;4.40;99.90
15713;DHT22;7957;51.608;6.916;2023-02-01T07:04:05;4.40;99.90
15713;DHT22;7957;51.608;6.916;2023-02-01T07:06:32;4.40;99.90
15713;DHT22;7957;51.608;6.916;2023-02-01T07:08:59;4.40;99.90
15713;DHT22;7957;51.608;6.916;2023-02-01T07:11:26;4.40;99.90
15713;DHT22;7957;51.608;6.916;2023-02-01T07:13:53;4.40;99.90
15713;DHT22;7957;51.608;6.916;2023-02-01T07:16:22;4.40;99.90
15713;DHT22;7957;51.608;6.916;2023-02-01T07:18:50;4.40;99.90
15713;DHT22;7957;51.608;6.916;2023-02-01T07:21:17;4.40;99.90
15713;DHT22;7957;51.608;6.916;2023-02-01T07:23:44;4.40;99.90
15713;DHT22;7957;51.608;6.916;2023-02-01T07:26:13;4.40;99.90
15713;DHT22;7957;51.608;6.916;2023-02-01T07:28:42;4.40;99.90
15713;DHT22;7957;51.608;6.916;2023-02-01T07:31:10;4.40;99.90
15713;DHT22;7957;51.608;6.916;2023-02-01T07:33:40;4.50;99.90
15713;DHT22;7957;51.608;6.916;2023-02-01T07:36:11;4.50;99.90
15713;DHT22;7957;51.608;6.916;2023-02-01T07:38:39;4.50;99.90
15713;DHT22;7957;51.608;6.916;2023-02-01T07:41:08;4.50;99.90
15713;DHT22;7957;51.608;6.916;2023-02-01T07:43:36;4.50;99.90
15713;DHT22;7957;51.608;6.916;2023-02-01T07:46:04;4.50;99.90
15713;DHT22;7957;51.608;6.916;2023-02-01T07:48:32;4.50;99.90
15713;DHT22;7957;51.608;6.916;2023-02-01T07:51:02;4.50;99.90
15713;DHT22;7957;51.608;6.916;2023-02-01T07:53:31;4.50;99.90
15713;DHT22;7957;51.608;6.916;2023-02-01T07:56:01;4.50;99.90
15713;DHT22;7957;51.608;6.916;2023-02-01T07:58:28;4.50;99.90
15713;DHT22;7957;51.608;6.916;2023-02-01T08:00:55;4.50;99.90
15713;DHT22;7957;51.608;6.916;2023-02-01T08:03:40;4.60;99.90
15713;DHT22;7957;51.608;6.916;2023-02-01T08:06:08;4.50;99.90
15713;DHT22;7957;51.608;6.916;2023-02-01T08:08:35;4.60;99.90
15713;DHT22;7957;51.608;6.916;2023-02-01T08:11:04;4.60;99.90
15713;DHT22;7957;51.608;6.916;2023-02-01T08:13:32;4.50;99.90
15713;DHT22;7957;51.608;6.916;2023-02-01T08:15:59;4.60;99.90
15713;DHT22;7957;51.608;6.916;2023-02-01T08:18:27;4.60;99.90
15713;DHT22;7957;51.608;6.916;2023-02-01T08:20:54;4.60;99.90
15713;DHT22;7957;51.608;6.916;2023-02-01T08:23:23;4.60;99.90
15713;DHT22;7957;51.608;6.916;2023-02-01T08:25:49;4.60;99.90
15713;DHT22;7957;51.608;6.916;2023-02-01T08:28:16;4.60;99.90
15713;DHT22;7957;51.608;6.916;2023-02-01T08:30:43;4.60;99.90
15713;DHT22;7957;51.608;6.916;2023-02-01T08:33:10;4.60;99.90
15713;DHT22;7957;51.608;6.916;2023-02-01T08:35:38;4.70;99.90
15713;DHT22;7957;51.608;6.916;2023-02-01T08:38:05;4.60;99.90
15713;DHT22;7957;51.608;6.916;2023-02-01T08:40:33;4.70;99.90
15713;DHT22;7957;51.608;6.916;2023-02-01T08:43:00;4.70;99.90
15713;DHT22;7957;51.608;6.916;2023-02-01T08:45:28;4.70;99.90
15713;DHT22;7957;51.608;6.916;2023-02-01T08:47:56;4.70;99.90
15713;DHT22;7957;51.608;6.916;2023-02-01T08:50:24;4.70;99.90
15713;DHT22;7957;51.608;6.916;2023-02-01T08:52:52;4.70;99.90
15713;DHT22;7957;51.608;6.916;2023-02-01T08:55:19;4.80;99.90
15713;DHT22;7957;51.608;6.916;2023-02-01T08:57:48;4.80;99.90
15713;DHT22;7957;51.608;6.916;2023-02-01T09:00:16;4.80;99.90
15713;DHT22;7957;51.608;6.916;2023-02-01T09:02:44;4.90;99.90
15713;DHT22;7957;51.608;6.916;2023-02-01T09:05:11;4.90;99.90
15713;DHT22;7957;51.608;6.916;2023-02-01T09:07:39;4.90;99.90
15713;DHT22;7957;51.608;6.916;2023-02-01T09:10:07;4.90;99.90
15713;DHT22;7957;51.608;6.916;2023-02-01T09:12:35;4.90;99.90
15713;DHT22;7957;51.608;6.916;2023-02-01T09:15:06;4.90;99.90
15713;DHT22;7957;51.608;6.916;2023-02-01T09:17:33;5.00;99.90
15713;DHT22;7957;51.608;6.916;2023-02-01T09:20:03;5.00;99.90
15713;DHT22;7957;51.608;6.916;2023-02-01T09:22:30;5.00;99.90
15713;DHT22;7957;51.608;6.916;2023-02-01T09:24:57;5.00;99.90
15713;DHT22;7957;51.608;6.916;2023-02-01T09:27:24;5.10;99.90
15713;DHT22;7957;51.608;6.916;2023-02-01T09:29:51;5.10;99.90
15713;DHT22;7957;51.608;6.916;2023-02-01T09:32:21;5.10;99.90
15713;DHT22;7957;51.608;6.916;2023-02-01T09:34:48;5.10;99.90
15713;DHT22;7957;51.608;6.916;2023-02-01T09:37:16;5.10;99.90
15713;DHT22;7957;51.608;6.916;2023-02-01T09:39:44;5.10;99.90
15713;DHT22;7957;51.608;6.916;2023-02-01T09:42:30;5.20;99.90
15713;DHT22;7957;51.608;6.916;2023-02-01T09:45:13;5.20;99.90
15713;DHT22;7957;51.608;6.916;2023-02-01T09:47:47;5.20;99.90
15713;DHT22;7957;51.608;6.916;2023-02-01T09:50:18;5.20;99.90
15713;DHT22;7957;51.608;6.916;2023-02-01T09:52:53;5.20;99.90
15713;DHT22;7957;51.608;6.916;2023-02-01T09:55:27;5.30;99.90
15713;DHT22;7957;51.608;6.916;2023-02-01T09:58:00;5.30;99.90
15713;DHT22;7957;51.608;6.916;2023-02-01T10:00:30;5.30;99.90
15713;DHT22;7957;51.608;6.916;2023-02-01T10:03:00;5.30;99.90
15713;DHT22;7957;51.608;6.916;2023-02-01T10:05:39;5.40;99.90
15713;DHT22;7957;51.608;6.916;2023-02-01T10:08:15;5.40;99.90
15713;DHT22;7957;51.608;6.916;2023-02-01T10:10:47;5.40;99.90
15713;DHT22;7957;51.608;6.916;2023-02-01T10:13:35;5.50;99.90
15713;DHT22;7957;51.608;6.916;2023-02-01T10:16:14;5.50;99.90
15713;DHT22;7957;51.608;6.916;2023-02-01T10:18:55;5.50;99.90
15713;DHT22;7957;51.608;6.916;2023-02-01T10:21:32;5.50;99.90
15713;DHT22;7957;51.608;6.916;2023-02-01T10:27:06;5.50;99.90
15713;DHT22;7957;51.608;6.916;2023-02-01T10:29:36;5.50;99.90
15713;DHT22;7957;51.608;6.916;2023-02-01T10:32:11;5.60;99.90
15713;DHT22;7957;51.608;6.916;2023-02-01T10:34:40;5.60;99.90
15713;DHT22;7957;51.608;6.916;2023-02-01T10:37:19;5.60;99.90
15713;DHT22;7957;51.608;6.916;2023-02-01T10:39:48;5.60;99.90
15713;DHT22;7957;51.608;6.916;2023-02-01T10:42:15;5.60;99.90
15713;DHT22;7957;51.608;6.916;2023-02-01T10:44:45;5.70;99.90
15713;DHT22;7957;51.608;6.916;2023-02-01T10:47:13;5.70;99.90
15713;DHT22;7957;51.608;6.916;2023-02-01T10:49:47;5.70;99.90
15713;DHT22;7957;51.608;6.916;2023-02-01T10:52:20;5.70;99.90
15713;DHT22;7957;51.608;6.916;2023-02-01T10:54:48;5.80;99.90
15713;DHT22;7957;51.608;6.916;2023-02-01T10:57:21;5.80;99.90
15713;DHT22;7957;51.608;6.916;2023-02-01T10:59:49;5.80;99.90
15713;DHT22;7957;51.608;6.916;2023-02-01T11:02:29;5.80;99.90
15713;DHT22;7957;51.608;6.916;2023-02-01T11:05:05;5.90;99.90
15713;DHT22;7957;51.608;6.916;2023-02-01T11:07:34;5.90;99.90
15713;DHT22;7957;51.608;6.916;2023-02-01T11:10:03;5.90;99.90
15713;DHT22;7957;51.608;6.916;2023-02-01T11:12:32;5.90;99.90
15713;DHT22;7957;51.608;6.916;2023-02-01T11:15:11;6.00;99.90
15713;DHT22;7957;51.608;6.916;2023-02-01T11:17:42;5.90;99.90
15713;DHT22;7957;51.608;6.916;2023-02-01T11:20:16;6.00;99.90
15713;DHT22;7957;51.608;6.916;2023-02-01T11:22:47;6.00;99.90
15713;DHT22;7957;51.608;6.916;2023-02-01T11:25:16;6.00;99.90
15713;DHT22;7957;51.608;6.916;2023-02-01T11:27:44;6.00;99.90
15713;DHT22;7957;51.608;6.916;2023-02-01T11:30:17;6.10;99.90
15713;DHT22;7957;51.608;6.916;2023-02-01T11:32:45;6.10;99.90
15713;DHT22;7957;51.608;6.916;2023-02-01T11:35:18;6.10;99.90
15713;DHT22;7957;51.608;6.916;2023-02-01T11:37:52;6.10;99.90
15713;DHT22;7957;51.608;6.916;2023-02-01T11:40:26;6.10;99.90
15713;DHT22;7957;51.608;6.916;2023-02-01T11:42:56;6.10;99.90
15713;DHT22;7957;51.608;6.916;2023-02-01T11:45:27;6.10;99.90
15713;DHT22;7957;51.608;6.916;2023-02-01T11:47:56;6.10;99.90
15713;DHT22;7957;51.608;6.916;2023-02-01T11:50:31;6.10;99.90
15713;DHT22;7957;51.608;6.916;2023-02-01T11:53:20;6.00;99.90
15713;DHT22;7957;51.608;6.916;2023-02-01T11:55:59;6.00;99.90
15713;DHT22;7957;51.608;6.916;2023-02-01T12:01:30;5.90;99.90
15713;DHT22;7957;51.608;6.916;2023-02-01T12:07:02;5.90;99.90
15713;DHT22;7957;51.608;6.916;2023-02-01T12:09:42;5.90;99.90
15713;DHT22;7957;51.608;6.916;2023-02-01T12:12:19;5.80;99.90
15713;DHT22;7957;51.608;6.916;2023-02-01T12:15:05;5.80;99.90
15713;DHT22;7957;51.608;6.916;2023-02-01T12:17:51;5.80;99.90
15713;DHT22;7957;51.608;6.916;2023-02-01T12:20:36;5.80;99.90
15713;DHT22;7957;51.608;6.916;2023-02-01T12:23:18;5.80;99.90
15713;DHT22;7957;51.608;6.916;2023-02-01T12:26:02;5.80;99.90
15713;DHT22;7957;51.608;6.916;2023-02-01T12:28:59;5.80;99.90
15713;DHT22;7957;51.608;6.916;2023-02-01T12:34:40;5.80;99.90
15713;DHT22;7957;51.608;6.916;2023-02-01T12:37:18;5.80;99.90
15713;DHT22;7957;51.608;6.916;2023-02-01T12:39:53;5.80;99.90
15713;DHT22;7957;51.608;6.916;2023-02-01T12:42:26;5.80;99.90
15713;DHT22;7957;51.608;6.916;2023-02-01T12:45:04;5.80;99.90
15713;DHT22;7957;51.608;6.916;2023-02-01T12:47:38;5.80;99.90
15713;DHT22;7957;51.608;6.916;2023-02-01T12:50:13;5.80;99.90
15713;DHT22;7957;51.608;6.916;2023-02-01T12:52:46;5.80;99.90
15713;DHT22;7957;51.608;6.916;2023-02-01T12:55:20;5.80;99.90
15713;DHT22;7957;51.608;6.916;2023-02-01T12:57:51;5.80;99.90
15713;DHT22;7957;51.608;6.916;2023-02-01T13:00:26;5.80;99.90
15713;DHT22;7957;51.608;6.916;2023-02-01T13:03:01;5.80;99.90
15713;DHT22;7957;51.608;6.916;2023-02-01T13:05:36;5.80;99.90
15713;DHT22;7957;51.608;6.916;2023-02-01T13:08:09;5.80;99.90
15713;DHT22;7957;51.608;6.916;2023-02-01T13:10:42;5.80;99.90
15713;DHT22;7957;51.608;6.916;2023-02-01T13:13:16;5.80;99.90
15713;DHT22;7957;51.608;6.916;2023-02-01T13:15:49;5.80;99.90
15713;DHT22;7957;51.608;6.916;2023-02-01T13:18:20;5.80;99.90
15713;DHT22;7957;51.608;6.916;2023-02-01T13:20:51;5.80;99.90
15713;DHT22;7957;51.608;6.916;2023-02-01T13:23:26;5.80;99.90
15713;DHT22;7957;51.608;6.916;2023-02-01T13:25:55;5.90;99.90
15713;DHT22;7957;51.608;6.916;2023-02-01T13:28:26;5.80;99.90
15713;DHT22;7957;51.608;6.916;2023-02-01T13:31:05;5.80;99.90
15713;DHT22;7957;51.608;6.916;2023-02-01T13:33:49;5.90;99.90
15713;DHT22;7957;51.608;6.916;2023-02-01T13:36:41;5.90;99.90
15713;DHT22;7957;51.608;6.916;2023-02-01T13:39:33;5.90;99.90
15713;DHT22;7957;51.608;6.916;2023-02-01T13:42:15;5.90;99.90
15713;DHT22;7957;51.608;6.916;2023-02-01T13:44:46;5.90;99.90
15713;DHT22;7957;51.608;6.916;2023-02-01T13:47:25;6.00;99.90
15713;DHT22;7957;51.608;6.916;2023-02-01T13:49:55;5.90;99.90
15713;DHT22;7957;51.608;6.916;2023-02-01T13:52:27;6.00;99.90
15713;DHT22;7957;51.608;6.916;2023-02-01T13:55:13;6.00;99.90
15713;DHT22;7957;51.608;6.916;2023-02-01T13:57:43;5.90;99.90
15713;DHT22;7957;51.608;6.916;2023-02-01T14:00:24;6.00;99.90
15713;DHT22;7957;51.608;6.916;2023-02-01T14:03:11;6.00;99.90
15713;DHT22;7957;51.608;6.916;2023-02-01T14:06:03;6.00;99.90
15713;DHT22;7957;51.608;6.916;2023-02-01T14:08:43;6.00;99.90
15713;DHT22;7957;51.608;6.916;2023-02-01T14:11:32;6.00;99.90
15713;DHT22;7957;51.608;6.916;2023-02-01T14:17:36;6.00;99.90
15713;DHT22;7957;51.608;6.916;2023-02-01T14:23:19;6.00;99.90
15713;DHT22;7957;51.608;6.916;2023-02-01T14:25:59;6.00;99.90
15713;DHT22;7957;51.608;6.916;2023-02-01T14:28:29;6.00;99.90
15713;DHT22;7957;51.608;6.916;2023-02-01T14:30:57;6.00;99.90
15713;DHT22;7957;51.608;6.916;2023-02-01T14:33:27;6.00;99.90
15713;DHT22;7957;51.608;6.916;2023-02-01T14:36:03;6.00;99.90
15713;DHT22;7957;51.608;6.916;2023-02-01T14:38:31;6.10;99.90
15713;DHT22;7957;51.608;6.916;2023-02-01T14:41:18;6.10;99.90
15713;DHT22;7957;51.608;6.916;2023-02-01T14:43:59;6.10;99.90
15713;DHT22;7957;51.608;6.916;2023-02-01T14:47:26;6.10;99.90
15713;DHT22;7957;51.608;6.916;2023-02-01T14:50:12;6.10;99.90
15713;DHT22;7957;51.608;6.916;2023-02-01T14:52:42;6.10;99.90
15713;DHT22;7957;51.608;6.916;2023-02-01T14:55:14;6.10;99.90
15713;DHT22;7957;51.608;6.916;2023-02-01T14:57:43;6.10;99.90
15713;DHT22;7957;51.608;6.916;2023-02-01T15:00:25;6.10;99.90
15713;DHT22;7957;51.608;6.916;2023-02-01T15:02:56;6.10;99.90
15713;DHT22;7957;51.608;6.916;2023-02-01T15:05:30;6.10;99.90
15713;DHT22;7957;51.608;6.916;2023-02-01T15:08:03;6.10;99.90
15713;DHT22;7957;51.608;6.916;2023-02-01T15:10:32;6.10;99.90
15713;DHT22;7957;51.608;6.916;2023-02-01T15:13:01;6.10;99.90
15713;DHT22;7957;51.608;6.916;2023-02-01T15:15:28;6.10;99.90
15713;DHT22;7957;51.608;6.916;2023-02-01T15:18:00;6.10;99.90
15713;DHT22;7957;51.608;6.916;2023-02-01T15:20:28;6.10;99.90
15713;DHT22;7957;51.608;6.916;2023-02-01T15:22:57;6.10;99.90
15713;DHT22;7957;51.608;6.916;2023-02-01T15:25:27;6.00;99.90
15713;DHT22;7957;51.608;6.916;2023-02-01T15:27:55;6.00;99.90
15713;DHT22;7957;51.608;6.916;2023-02-01T15:30:26;6.00;99.90
15713;DHT22;7957;51.608;6.916;2023-02-01T15:33:06;6.00;99.90
15713;DHT22;7957;51.608;6.916;2023-02-01T15:35:40;6.00;99.90
15713;DHT22;7957;51.608;6.916;2023-02-01T15:38:32;6.00;99.90
15713;DHT22;7957;51.608;6.916;2023-02-01T15:41:02;6.00;99.90
15713;DHT22;7957;51.608;6.916;2023-02-01T15:43:31;6.00;99.90
15713;DHT22;7957;51.608;6.916;2023-02-01T15:46:03;6.10;99.90
15713;DHT22;7957;51.608;6.916;2023-02-01T15:48:46;6.00;99.90
15713;DHT22;7957;51.608;6.916;2023-02-01T15:51:16;6.00;99.90
15713;DHT22;7957;51.608;6.916;2023-02-01T15:53:48;6.00;99.90
15713;DHT22;7957;51.608;6.916;2023-02-01T15:56:20;6.00;99.90
15713;DHT22;7957;51.608;6.916;2023-02-01T15:58:51;6.00;99.90
15713;DHT22;7957;51.608;6.916;2023-02-01T16:01:19;6.00;99.90
15713;DHT22;7957;51.608;6.916;2023-02-01T16:03:47;6.00;99.90
15713;DHT22;7957;51.608;6.916;2023-02-01T16:06:28;6.00;99.90
15713;DHT22;7957;51.608;6.916;2023-02-01T16:09:01;6.00;99.90
15713;DHT22;7957;51.608;6.916;2023-02-01T16:11:29;6.00;99.90
15713;DHT22;7957;51.608;6.916;2023-02-01T16:13:57;6.00;99.90
15713;DHT22;7957;51.608;6.916;2023-02-01T16:16:26;6.00;99.90
15713;DHT22;7957;51.608;6.916;2023-02-01T16:18:55;6.00;99.90
15713;DHT22;7957;51.608;6.916;2023-02-01T16:21:22;6.00;99.90
15713;DHT22;7957;51.608;6.916;2023-02-01T16:23:49;6.00;99.90
15713;DHT22;7957;51.608;6.916;2023-02-01T16:26:17;6.00;99.90
15713;DHT22;7957;51.608;6.916;2023-02-01T16:28:44;6.00;99.90
15713;DHT22;7957;51.608;6.916;2023-02-01T16:31:12;6.00;99.90
15713;DHT22;7957;51.608;6.916;2023-02-01T16:33:45;6.00;99.90
15713;DHT22;7957;51.608;6.916;2023-02-01T16:36:14;6.00;99.90
15713;DHT22;7957;51.608;6.916;2023-02-01T16:38:42;6.00;99.90
15713;DHT22;7957;51.608;6.916;2023-02-01T16:41:12;6.00;99.90
15713;DHT22;7957;51.608;6.916;2023-02-01T16:43:40;6.00;99.90
15713;DHT22;7957;51.608;6.916;2023-02-01T16:46:12;6.00;99.90
15713;DHT22;7957;51.608;6.916;2023-02-01T16:48:41;6.00;99.90
15713;DHT22;7957;51.608;6.916;2023-02-01T16:51:11;6.00;99.90
15713;DHT22;7957;51.608;6.916;2023-02-01T16:53:40;6.00;99.90